Herzlich willkommen!

Am freundlichen Bodensee-Flugplatz zwischen Schwarzwald, Rhein und Alpen.

Aktuelles

16.12.2018
Winterpause
Liebe Flieger, in der Zeit vom 17.Dez.2018 bis 31.Jan.2019 ist der Flugplatz Konstanz von der Betriebspflicht befreit. Es gilt eine PPR-Regelung. Telefonisch sind wir unter 0172-7411981 erreichbar. Wir wünschen Allen frohe Weihnachten und einen guten Rutsch ins neue Jahr.
— Flugleitung EDTZ

Live am Platz

Die Bilder unserer Webcams werden alle 5 Minuten aktualisiert.

Sonnenaufgang:

07:01 UTC / 08:01 Lokal

Sonnenuntergang:

16:07 UTC / 17:07 Lokal

METAR (20.01.2019 10:20 UTC):

EDNY 201020Z VRB02KT CAVOK M02/M05 Q1014
VFR

TAF (20.01.2019 05:00 UTC):

TAF EDNY 200500Z 2006/2106 VRB03KT 7000 SCT020 PROB30 TEMPO 2006/2009 2000 BCFG BKN004 TEMPO 2007/2012 4000 -SN BKN012 TEMPO 2019/2106 4000 -SN BKN006

Alle Angaben unverbindlich und ohne Gewähr. Zeiten genähert.

Für den Verkehrslandeplatz Konstanz werden keine offiziellen Wetterinformationen ausgegeben. Daher werden zur Orientierung Daten des nahegelegenen Flughafens Friedrichshafen dargestellt.

Flugwetterdaten zur Verfügung gestellt von wippich.aero.